createdAt,value
2022-09-07T00:01:26.822Z,59.84
2022-09-07T00:03:56.054Z,59.96
2022-09-07T00:06:25.661Z,59.91
2022-09-07T00:08:54.419Z,59.56
2022-09-07T00:11:22.867Z,59.66
2022-09-07T00:16:49.250Z,59.54
2022-09-07T00:19:17.687Z,59.87
2022-09-07T00:21:46.997Z,60.03
2022-09-07T00:24:15.627Z,59.55
2022-09-07T00:26:44.534Z,59.76
2022-09-07T00:29:14.604Z,59.98
2022-09-07T00:31:43.488Z,60.31
2022-09-07T00:34:12.223Z,60.16
2022-09-07T00:36:40.574Z,60.33
2022-09-07T00:39:09.341Z,60.34
2022-09-07T00:41:38.357Z,60.42
2022-09-07T00:44:55.713Z,60.49
2022-09-07T00:47:30.913Z,60.25
2022-09-07T00:50:03.760Z,60.59
2022-09-07T00:52:35.380Z,60.68
2022-09-07T00:55:09.078Z,61.18
2022-09-07T00:57:40.390Z,61.06
2022-09-07T01:00:10.877Z,61.27
2022-09-07T01:02:41.677Z,60.93
2022-09-07T01:05:18.543Z,61.34
2022-09-07T01:07:47.159Z,61.05
2022-09-07T01:10:16.862Z,61.36
2022-09-07T01:12:45.212Z,60.96
2022-09-07T01:15:14.325Z,61.21
2022-09-07T01:17:57.128Z,61.20
2022-09-07T01:20:50.564Z,60.86
2022-09-07T01:23:49.354Z,61.14
2022-09-07T01:26:35.619Z,61.08
2022-09-07T01:29:15.336Z,60.91
2022-09-07T01:31:55.732Z,61.24
2022-09-07T01:34:26.933Z,60.98
2022-09-07T01:37:07.116Z,61.03
2022-09-07T01:39:43.319Z,60.93
2022-09-07T01:42:15.225Z,60.64
2022-09-07T01:44:51.178Z,60.89
2022-09-07T01:47:24.470Z,60.73
2022-09-07T01:49:57.623Z,61.07
2022-09-07T01:52:35.254Z,60.81
2022-09-07T01:55:11.306Z,60.99
2022-09-07T01:57:44.303Z,60.96
2022-09-07T02:00:18.138Z,61.11
2022-09-07T02:02:51.437Z,61.31
2022-09-07T02:05:22.637Z,61.00
2022-09-07T02:07:55.518Z,61.09
2022-09-07T02:10:28.514Z,60.96
2022-09-07T02:13:02.928Z,61.45
2022-09-07T02:15:44.120Z,61.56
2022-09-07T02:18:15.284Z,61.67
2022-09-07T02:20:47.702Z,61.65
2022-09-07T02:23:21.019Z,61.48
2022-09-07T02:25:55.183Z,61.62
2022-09-07T02:28:27.782Z,61.36
2022-09-07T02:30:57.591Z,61.89
2022-09-07T02:33:26.857Z,61.54
2022-09-07T02:35:55.549Z,62.10
2022-09-07T02:38:25.156Z,61.92
2022-09-07T02:40:54.502Z,62.31
2022-09-07T02:43:25.399Z,62.36
2022-09-07T02:46:07.610Z,62.69
2022-09-07T02:48:46.657Z,63.01
2022-09-07T02:51:24.348Z,63.10
2022-09-07T02:54:08.582Z,63.57
2022-09-07T02:56:52.635Z,63.31
2022-09-07T02:59:37.418Z,63.14
2022-09-07T03:02:17.497Z,63.49
2022-09-07T03:04:52.278Z,63.21
2022-09-07T03:07:25.100Z,63.38
2022-09-07T03:09:57.555Z,63.02
2022-09-07T03:12:26.430Z,62.77
2022-09-07T03:14:54.754Z,62.78
2022-09-07T03:17:25.357Z,63.08
2022-09-07T03:19:54.161Z,62.91
2022-09-07T03:22:22.462Z,63.26
2022-09-07T03:24:51.147Z,63.32
2022-09-07T03:27:19.539Z,63.32
2022-09-07T03:29:48.779Z,63.54
2022-09-07T03:32:17.517Z,63.77
2022-09-07T03:34:48.753Z,63.98
2022-09-07T03:37:17.051Z,64.28
2022-09-07T03:39:47.200Z,64.06
2022-09-07T03:42:15.991Z,64.06
2022-09-07T03:44:44.680Z,64.33
2022-09-07T03:47:13.867Z,64.76
2022-09-07T03:49:43.022Z,64.68
2022-09-07T03:52:12.716Z,64.96
2022-09-07T03:54:41.607Z,65.21
2022-09-07T03:57:09.913Z,65.54
2022-09-07T03:59:38.851Z,65.63
2022-09-07T04:02:07.290Z,65.64
2022-09-07T04:04:36.513Z,65.59
2022-09-07T04:07:05.163Z,65.27
2022-09-07T04:09:35.310Z,65.39
2022-09-07T04:12:04.221Z,65.51
2022-09-07T04:14:32.974Z,65.87
2022-09-07T04:17:01.777Z,65.76
2022-09-07T04:19:31.190Z,65.89
2022-09-07T04:22:00.405Z,65.77
2022-09-07T04:24:28.763Z,65.78
2022-09-07T04:26:59.236Z,65.73
2022-09-07T04:29:27.801Z,65.49
2022-09-07T04:31:56.110Z,65.49
2022-09-07T04:34:25.464Z,65.52
2022-09-07T04:36:53.809Z,65.63
2022-09-07T04:39:23.501Z,65.49
2022-09-07T04:41:52.109Z,65.26
2022-09-07T04:44:22.097Z,65.11
2022-09-07T04:46:50.894Z,65.23
2022-09-07T04:49:20.756Z,65.83
2022-09-07T04:51:49.115Z,65.87
2022-09-07T04:54:17.924Z,66.18
2022-09-07T04:56:46.257Z,66.23
2022-09-07T04:59:15.525Z,66.30
2022-09-07T05:01:45.261Z,66.45
2022-09-07T05:04:13.602Z,66.65
2022-09-07T05:06:42.814Z,66.90
2022-09-07T05:09:11.392Z,67.33
2022-09-07T05:11:40.220Z,67.23
2022-09-07T05:14:08.595Z,67.16
2022-09-07T05:16:37.411Z,67.52
2022-09-07T05:19:07.145Z,67.64
2022-09-07T05:21:36.782Z,67.66
2022-09-07T05:24:06.133Z,67.69
2022-09-07T05:26:37.455Z,68.09
2022-09-07T05:31:56.953Z,68.20
2022-09-07T05:37:01.065Z,67.90
2022-09-07T05:39:32.038Z,68.16
2022-09-07T05:42:00.381Z,68.20
2022-09-07T05:44:46.485Z,67.98
2022-09-07T05:47:16.324Z,68.33
2022-09-07T05:49:46.442Z,68.27
2022-09-07T05:52:14.846Z,68.35
2022-09-07T05:54:44.013Z,68.29
2022-09-07T05:57:13.386Z,68.39
2022-09-07T05:59:42.185Z,68.45
2022-09-07T06:02:14.573Z,68.14
2022-09-07T06:04:43.322Z,68.30
2022-09-07T06:07:22.440Z,68.00
2022-09-07T06:12:44.398Z,67.75
2022-09-07T06:15:17.941Z,68.04
2022-09-07T06:17:46.504Z,67.68
2022-09-07T06:20:15.466Z,67.27
2022-09-07T06:22:45.558Z,67.46
2022-09-07T06:25:13.870Z,66.93
2022-09-07T06:27:42.585Z,66.91
2022-09-07T06:30:12.339Z,66.96
2022-09-07T06:35:11.304Z,66.67
2022-09-07T06:37:40.681Z,66.78
2022-09-07T06:40:12.052Z,66.54
2022-09-07T06:42:41.072Z,66.49
2022-09-07T06:45:11.937Z,66.38
2022-09-07T06:47:41.431Z,66.28
2022-09-07T06:50:10.952Z,66.57
2022-09-07T06:55:29.950Z,66.48
2022-09-07T06:57:58.262Z,66.44
2022-09-07T07:00:26.947Z,66.66
2022-09-07T07:02:55.293Z,66.50
2022-09-07T07:05:24.105Z,66.67
2022-09-07T07:07:52.951Z,66.39
2022-09-07T07:10:24.810Z,66.54
2022-09-07T07:12:58.438Z,66.93
2022-09-07T07:15:29.354Z,67.76
2022-09-07T07:18:05.440Z,67.73
2022-09-07T07:20:44.166Z,68.39
2022-09-07T07:23:13.594Z,68.35
2022-09-07T07:25:41.949Z,68.40
2022-09-07T07:31:06.075Z,68.82
2022-09-07T07:33:38.147Z,69.12
2022-09-07T07:36:14.571Z,68.74
2022-09-07T07:39:00.575Z,68.90
2022-09-07T07:44:22.243Z,69.09
2022-09-07T07:46:51.803Z,68.82
2022-09-07T07:49:20.298Z,69.09
2022-09-07T07:54:38.308Z,68.63
2022-09-07T07:57:07.992Z,68.09
2022-09-07T07:59:38.201Z,67.77
2022-09-07T08:02:09.187Z,67.75
2022-09-07T08:04:37.950Z,67.09
2022-09-07T08:07:10.750Z,66.96
2022-09-07T08:09:41.557Z,67.13
2022-09-07T08:12:11.453Z,67.18
2022-09-07T08:14:42.479Z,66.80
2022-09-07T08:17:12.492Z,66.86
2022-09-07T08:19:41.705Z,66.95
2022-09-07T08:22:11.342Z,66.64
2022-09-07T08:24:40.604Z,66.66
2022-09-07T08:27:09.165Z,66.73
2022-09-07T08:29:37.800Z,66.68
2022-09-07T08:32:07.807Z,66.72
2022-09-07T08:34:38.266Z,66.32
2022-09-07T08:37:06.592Z,66.66
2022-09-07T08:39:36.517Z,66.42
2022-09-07T08:42:32.352Z,65.80
2022-09-07T08:45:05.938Z,65.53
2022-09-07T08:47:41.967Z,65.50
2022-09-07T08:50:15.274Z,65.39
2022-09-07T08:52:49.634Z,65.14
2022-09-07T08:55:23.075Z,64.64
2022-09-07T08:57:58.620Z,64.13
2022-09-07T09:00:27.967Z,64.05
2022-09-07T09:05:58.545Z,63.90
2022-09-07T09:08:51.868Z,64.04
2022-09-07T09:11:29.416Z,63.95
2022-09-07T09:14:07.395Z,63.78
2022-09-07T09:16:43.726Z,63.53
2022-09-07T09:19:31.444Z,63.01
2022-09-07T09:22:09.311Z,62.78
2022-09-07T09:24:42.095Z,62.83
2022-09-07T09:27:11.155Z,62.53
2022-09-07T09:29:39.591Z,62.40
2022-09-07T09:32:40.154Z,62.43
2022-09-07T09:35:28.566Z,61.96
2022-09-07T09:37:57.693Z,62.05
2022-09-07T09:40:29.671Z,61.38
2022-09-07T09:43:04.043Z,61.08
2022-09-07T09:48:33.039Z,59.75
2022-09-07T09:54:03.270Z,57.88
2022-09-07T09:56:39.885Z,57.70
2022-09-07T10:05:29.755Z,54.86
2022-09-07T10:08:00.310Z,53.46
2022-09-07T10:10:30.611Z,52.85
2022-09-07T10:12:59.297Z,51.89
2022-09-07T10:15:40.122Z,50.99
2022-09-07T10:18:21.168Z,50.85
2022-09-07T10:20:50.489Z,50.07
2022-09-07T10:23:25.373Z,49.13
2022-09-07T10:25:53.706Z,48.45
2022-09-07T10:28:25.274Z,47.92
2022-09-07T10:31:08.008Z,46.99
2022-09-07T10:34:25.805Z,46.80
2022-09-07T10:36:41.059Z,46.39
2022-09-07T10:39:15.699Z,45.69
2022-09-07T10:41:50.010Z,45.50
2022-09-07T10:44:26.378Z,45.63
2022-09-07T10:47:00.971Z,45.89
2022-09-07T10:49:39.376Z,46.16
2022-09-07T10:52:19.274Z,46.07
2022-09-07T10:54:54.817Z,46.55
2022-09-07T10:57:39.747Z,46.56
2022-09-07T11:00:12.844Z,46.93
2022-09-07T11:06:02.016Z,47.52
2022-09-07T11:14:28.587Z,46.17
2022-09-07T11:17:01.127Z,45.51
2022-09-07T11:19:37.443Z,45.73
2022-09-07T11:22:18.503Z,45.37
2022-09-07T11:27:46.796Z,44.34
2022-09-07T11:30:22.045Z,43.73
2022-09-07T11:33:00.258Z,43.10
2022-09-07T11:35:37.730Z,43.13
2022-09-07T11:38:15.619Z,42.26
2022-09-07T11:40:54.915Z,42.09
2022-09-07T11:43:29.359Z,41.89
2022-09-07T11:46:02.643Z,41.13
2022-09-07T11:48:36.445Z,40.48
2022-09-07T11:51:11.646Z,39.84
2022-09-07T11:53:45.984Z,39.06
2022-09-07T11:56:19.454Z,38.98
2022-09-07T11:59:03.917Z,38.26
2022-09-07T12:01:44.278Z,37.54
2022-09-07T12:04:30.019Z,37.61
2022-09-07T12:07:31.450Z,36.80
2022-09-07T12:10:23.062Z,36.52
2022-09-07T12:13:11.697Z,36.48
2022-09-07T12:15:53.046Z,36.11
2022-09-07T12:18:47.479Z,35.44
2022-09-07T12:21:42.208Z,35.29
2022-09-07T12:24:37.450Z,35.09
2022-09-07T12:27:07.654Z,34.81
2022-09-07T12:29:36.273Z,34.24
2022-09-07T12:32:53.133Z,34.24
2022-09-07T12:34:57.940Z,34.39
2022-09-07T12:37:44.023Z,34.57
2022-09-07T12:40:49.169Z,34.30
2022-09-07T12:43:53.533Z,34.10
2022-09-07T12:46:46.718Z,34.21
2022-09-07T12:49:44.502Z,33.95
2022-09-07T12:52:34.465Z,33.67
2022-09-07T12:55:31.139Z,33.12
2022-09-07T12:58:12.904Z,33.55
2022-09-07T13:00:57.811Z,33.47
2022-09-07T13:03:51.874Z,33.53
2022-09-07T13:09:36.407Z,32.79
2022-09-07T13:15:34.062Z,32.40
2022-09-07T13:18:03.442Z,32.11
2022-09-07T13:20:36.381Z,32.38
2022-09-07T13:23:31.393Z,31.31
2022-09-07T13:26:01.366Z,31.39
2022-09-07T13:28:56.249Z,31.24
2022-09-07T13:31:46.949Z,30.82
2022-09-07T13:34:37.869Z,30.99
2022-09-07T13:37:13.216Z,30.87
2022-09-07T13:39:47.081Z,31.09
2022-09-07T13:42:18.475Z,30.74
2022-09-07T13:44:55.827Z,30.76
2022-09-07T13:47:34.434Z,30.48
2022-09-07T13:50:12.850Z,29.57
2022-09-07T13:52:59.711Z,29.95
2022-09-07T13:55:35.890Z,29.77
2022-09-07T13:58:17.070Z,29.92
2022-09-07T14:00:53.741Z,30.19
2022-09-07T14:03:24.818Z,29.98
2022-09-07T14:06:14.382Z,29.98
2022-09-07T14:08:49.327Z,29.47
2022-09-07T14:11:24.348Z,29.63
2022-09-07T14:14:09.410Z,28.64
2022-09-07T14:16:38.274Z,28.27
2022-09-07T14:19:17.885Z,28.55
2022-09-07T14:21:55.858Z,29.30
2022-09-07T14:24:31.095Z,30.08
2022-09-07T14:27:02.184Z,30.53
2022-09-07T14:29:32.315Z,30.75
2022-09-07T14:32:03.247Z,30.30
2022-09-07T14:34:35.055Z,30.11
2022-09-07T14:37:09.004Z,29.43
2022-09-07T14:39:41.031Z,29.35
2022-09-07T14:42:13.331Z,29.59
2022-09-07T14:44:43.591Z,29.26
2022-09-07T14:47:26.209Z,29.85
2022-09-07T14:49:57.129Z,30.17
2022-09-07T14:52:35.758Z,29.77
2022-09-07T14:55:22.946Z,29.67
2022-09-07T14:58:09.839Z,29.53
2022-09-07T15:00:38.767Z,29.34
2022-09-07T15:03:26.575Z,28.42
2022-09-07T15:06:00.326Z,28.83
2022-09-07T15:08:41.233Z,28.30
2022-09-07T15:14:10.649Z,28.71
2022-09-07T15:16:41.786Z,28.55
2022-09-07T15:19:32.634Z,28.19
2022-09-07T15:22:01.839Z,28.49
2022-09-07T15:24:30.197Z,28.39
2022-09-07T15:27:05.691Z,28.37
2022-09-07T15:29:35.937Z,28.39
2022-09-07T15:32:10.069Z,27.91
2022-09-07T15:34:39.375Z,28.12
2022-09-07T15:39:56.512Z,28.26
2022-09-07T15:45:16.012Z,28.71
2022-09-07T15:47:50.811Z,28.95
2022-09-07T15:50:23.146Z,29.17
2022-09-07T15:52:51.927Z,29.09
2022-09-07T15:55:21.133Z,29.11
2022-09-07T15:57:56.917Z,28.72
2022-09-07T16:00:29.835Z,28.66
2022-09-07T16:03:07.584Z,29.09
2022-09-07T16:05:36.779Z,29.04
2022-09-07T16:10:55.765Z,28.74
2022-09-07T16:13:33.627Z,28.70
2022-09-07T16:16:06.749Z,29.04
2022-09-07T16:18:35.915Z,29.51
2022-09-07T16:21:11.876Z,30.34
2022-09-07T16:23:42.845Z,30.67
2022-09-07T16:26:12.929Z,30.97
2022-09-07T16:28:42.730Z,31.81
2022-09-07T16:31:14.963Z,32.02
2022-09-07T16:33:43.938Z,32.67
2022-09-07T16:36:16.009Z,32.59
2022-09-07T16:38:48.739Z,32.65
2022-09-07T16:41:20.746Z,33.08
2022-09-07T16:43:50.467Z,33.48
2022-09-07T16:46:22.085Z,34.06
2022-09-07T16:48:52.417Z,34.94
2022-09-07T16:51:22.696Z,34.93
2022-09-07T16:53:53.992Z,35.64
2022-09-07T16:56:24.851Z,36.48
2022-09-07T16:58:56.698Z,36.58
2022-09-07T17:01:28.644Z,37.32
2022-09-07T17:03:57.913Z,37.67
2022-09-07T17:06:28.722Z,38.10
2022-09-07T17:08:57.349Z,38.11
2022-09-07T17:11:29.146Z,38.33
2022-09-07T17:13:58.642Z,39.22
2022-09-07T17:16:30.579Z,39.17
2022-09-07T17:21:52.732Z,39.62
2022-09-07T17:24:21.057Z,40.24
2022-09-07T17:26:49.390Z,40.67
2022-09-07T17:29:17.778Z,41.04
2022-09-07T17:34:36.668Z,41.76
2022-09-07T17:37:04.982Z,42.35
2022-09-07T17:39:33.854Z,42.57
2022-09-07T17:42:02.663Z,42.45
2022-09-07T17:44:36.008Z,42.94
2022-09-07T17:47:08.647Z,43.24
2022-09-07T17:49:36.989Z,43.54
2022-09-07T17:52:05.364Z,43.92
2022-09-07T17:54:34.101Z,43.67
2022-09-07T17:57:03.052Z,43.87
2022-09-07T18:02:22.505Z,44.36
2022-09-07T18:04:51.205Z,44.85
2022-09-07T18:07:19.549Z,45.27
2022-09-07T18:09:48.550Z,45.71
2022-09-07T18:12:16.908Z,46.00
2022-09-07T18:14:46.027Z,46.04
2022-09-07T18:17:14.304Z,46.22
2022-09-07T18:19:45.074Z,46.14
2022-09-07T18:22:13.867Z,46.10
2022-09-07T18:24:44.255Z,46.25
2022-09-07T18:27:12.828Z,46.63
2022-09-07T18:29:42.087Z,46.79
2022-09-07T18:32:10.681Z,47.10
2022-09-07T18:34:41.361Z,47.39
2022-09-07T18:37:12.819Z,47.40
2022-09-07T18:39:41.771Z,47.51
2022-09-07T18:42:10.856Z,47.41
2022-09-07T18:47:29.619Z,47.99
2022-09-07T18:49:59.026Z,48.16
2022-09-07T18:55:19.367Z,48.31
2022-09-07T18:57:47.863Z,48.37
2022-09-07T19:00:18.018Z,48.45
2022-09-07T19:02:50.592Z,48.76
2022-09-07T19:08:10.303Z,48.82
2022-09-07T19:10:38.989Z,48.92
2022-09-07T19:13:07.994Z,49.10
2022-09-07T19:15:37.761Z,49.23
2022-09-07T19:18:09.184Z,49.29
2022-09-07T19:20:38.122Z,49.11
2022-09-07T19:23:06.843Z,49.03
2022-09-07T19:25:41.523Z,49.28
2022-09-07T19:28:10.237Z,49.42
2022-09-07T19:30:39.032Z,49.52
2022-09-07T19:33:10.302Z,49.63
2022-09-07T19:35:38.608Z,49.80
2022-09-07T19:38:07.617Z,50.03
2022-09-07T19:40:37.238Z,50.19
2022-09-07T19:43:06.383Z,50.18
2022-09-07T19:45:38.571Z,50.14
2022-09-07T19:48:07.920Z,50.32
2022-09-07T19:50:36.879Z,50.61
2022-09-07T19:53:05.698Z,50.52
2022-09-07T19:55:34.659Z,50.79
2022-09-07T19:58:04.366Z,50.81
2022-09-07T20:00:34.213Z,51.08
2022-09-07T20:03:03.367Z,50.87
2022-09-07T20:05:31.651Z,51.04
2022-09-07T20:08:00.330Z,51.09
2022-09-07T20:10:28.788Z,51.22
2022-09-07T20:12:57.129Z,51.54
2022-09-07T20:15:27.575Z,51.52
2022-09-07T20:17:55.915Z,51.40
2022-09-07T20:20:24.891Z,51.54
2022-09-07T20:22:53.287Z,51.78
2022-09-07T20:25:22.797Z,51.85
2022-09-07T20:27:51.060Z,51.99
2022-09-07T20:30:19.918Z,51.98
2022-09-07T20:32:49.551Z,52.11
2022-09-07T20:35:18.634Z,52.36
2022-09-07T20:37:46.992Z,52.34
2022-09-07T20:40:15.617Z,52.41
2022-09-07T20:42:45.491Z,52.48
2022-09-07T20:45:14.292Z,52.85
2022-09-07T20:47:42.957Z,52.95
2022-09-07T20:50:13.157Z,53.19
2022-09-07T20:52:41.824Z,53.10
2022-09-07T20:55:10.999Z,52.96
2022-09-07T20:57:39.508Z,53.16
2022-09-07T21:00:09.533Z,53.53
2022-09-07T21:02:37.781Z,53.62
2022-09-07T21:05:08.431Z,53.74
2022-09-07T21:07:40.807Z,54.00
2022-09-07T21:10:10.539Z,54.38
2022-09-07T21:12:38.866Z,54.48
2022-09-07T21:15:08.960Z,54.42
2022-09-07T21:17:39.073Z,54.71
2022-09-07T21:20:08.048Z,54.64
2022-09-07T21:22:36.317Z,54.70
2022-09-07T21:25:07.558Z,54.58
2022-09-07T21:27:38.781Z,54.53
2022-09-07T21:30:09.225Z,54.69
2022-09-07T21:32:37.780Z,54.49
2022-09-07T21:35:07.699Z,54.82
2022-09-07T21:37:35.982Z,54.62
2022-09-07T21:40:07.293Z,55.04
2022-09-07T21:42:35.997Z,54.95
2022-09-07T21:45:07.041Z,54.76
2022-09-07T21:47:35.329Z,55.15
2022-09-07T21:50:04.931Z,55.08
2022-09-07T21:52:33.335Z,55.41
2022-09-07T21:55:02.438Z,55.31
2022-09-07T21:57:33.152Z,55.04
2022-09-07T22:00:01.479Z,54.87
2022-09-07T22:02:37.194Z,55.09
2022-09-07T22:05:06.291Z,55.12
2022-09-07T22:07:34.981Z,55.29
2022-09-07T22:10:03.993Z,55.32
2022-09-07T22:12:33.594Z,55.38
2022-09-07T22:15:02.703Z,55.72
2022-09-07T22:17:31.534Z,55.82
2022-09-07T22:20:00.394Z,56.11
2022-09-07T22:22:28.719Z,56.02
2022-09-07T22:24:57.875Z,56.57
2022-09-07T22:27:26.375Z,56.55
2022-09-07T22:29:56.389Z,56.40
2022-09-07T22:32:24.732Z,56.58
2022-09-07T22:34:53.131Z,56.19
2022-09-07T22:37:21.787Z,56.42
2022-09-07T22:39:50.504Z,56.12
2022-09-07T22:42:18.822Z,56.56
2022-09-07T22:44:47.339Z,56.64
2022-09-07T22:47:16.969Z,56.38
2022-09-07T22:49:46.991Z,56.60
2022-09-07T22:52:15.305Z,56.43
2022-09-07T22:54:44.055Z,56.79
2022-09-07T22:57:12.356Z,56.83
2022-09-07T22:59:41.350Z,56.62
2022-09-07T23:02:10.054Z,56.22
2022-09-07T23:04:40.179Z,56.68
2022-09-07T23:07:09.361Z,56.34
2022-09-07T23:09:37.618Z,56.61
2022-09-07T23:12:06.823Z,56.90
2022-09-07T23:14:35.467Z,57.06
2022-09-07T23:17:04.436Z,56.75
2022-09-07T23:19:32.760Z,56.63
2022-09-07T23:22:02.487Z,56.70
2022-09-07T23:24:31.414Z,56.88
2022-09-07T23:26:59.669Z,57.34
2022-09-07T23:29:28.798Z,57.34
2022-09-07T23:31:57.068Z,57.03
2022-09-07T23:34:25.751Z,57.02
2022-09-07T23:36:54.119Z,57.23
2022-09-07T23:39:24.625Z,57.13
2022-09-07T23:41:52.911Z,56.94
2022-09-07T23:44:21.894Z,56.91
2022-09-07T23:46:50.245Z,57.33
2022-09-07T23:49:19.342Z,57.96
2022-09-07T23:51:47.983Z,58.51
2022-09-07T23:54:16.240Z,58.61
2022-09-07T23:56:46.776Z,59.00
2022-09-07T23:59:15.121Z,58.91
